createdAt,value
2022-07-29T00:01:38.725Z,21.19
2022-07-29T00:04:07.010Z,21.14
2022-07-29T00:06:34.996Z,21.12
2022-07-29T00:09:02.921Z,21.12
2022-07-29T00:11:31.230Z,21.10
2022-07-29T00:13:59.100Z,21.08
2022-07-29T00:16:27.115Z,21.06
2022-07-29T00:18:55.383Z,21.04
2022-07-29T00:21:23.217Z,21.01
2022-07-29T00:23:51.133Z,20.97
2022-07-29T00:26:19.376Z,20.96
2022-07-29T00:28:47.212Z,20.95
2022-07-29T00:31:16.272Z,20.98
2022-07-29T00:33:44.592Z,20.98
2022-07-29T00:36:12.522Z,21.01
2022-07-29T00:38:42.642Z,20.97
2022-07-29T00:41:11.084Z,20.97
2022-07-29T00:43:39.047Z,20.95
2022-07-29T00:46:06.955Z,20.91
2022-07-29T00:48:35.176Z,20.88
2022-07-29T00:51:05.460Z,20.81
2022-07-29T00:53:33.639Z,20.79
2022-07-29T00:56:01.901Z,20.75
2022-07-29T00:58:29.819Z,20.45
2022-07-29T01:00:59.256Z,20.36
2022-07-29T01:03:27.427Z,20.29
2022-07-29T01:05:55.926Z,20.31
2022-07-29T01:08:24.919Z,20.32
2022-07-29T01:10:54.246Z,20.27
2022-07-29T01:13:23.487Z,20.30
2022-07-29T01:15:58.022Z,20.32
2022-07-29T01:18:35.052Z,20.30
2022-07-29T01:21:45.981Z,20.32
2022-07-29T01:24:51.527Z,20.34
2022-07-29T01:27:38.174Z,20.36
2022-07-29T01:30:08.506Z,20.24
2022-07-29T01:32:40.538Z,20.24
2022-07-29T01:35:11.257Z,20.21
2022-07-29T01:37:58.955Z,20.22
2022-07-29T01:40:41.889Z,20.17
2022-07-29T01:43:19.905Z,20.10
2022-07-29T01:46:04.255Z,20.08
2022-07-29T01:49:02.196Z,19.88
2022-07-29T01:51:36.748Z,20.10
2022-07-29T01:54:27.701Z,20.16
2022-07-29T01:56:59.822Z,20.15
2022-07-29T01:59:30.032Z,20.11
2022-07-29T02:02:00.657Z,20.09
2022-07-29T02:04:30.608Z,20.13
2022-07-29T02:07:04.685Z,20.19
2022-07-29T02:09:35.859Z,20.09
2022-07-29T02:12:05.261Z,20.10
2022-07-29T02:14:37.470Z,20.10
2022-07-29T02:17:05.876Z,20.05
2022-07-29T02:19:35.217Z,19.98
2022-07-29T02:22:03.857Z,19.81
2022-07-29T02:24:32.315Z,19.67
2022-07-29T02:27:02.037Z,19.73
2022-07-29T02:29:32.999Z,19.72
2022-07-29T02:32:04.040Z,19.70
2022-07-29T02:34:34.351Z,19.69
2022-07-29T02:37:04.766Z,19.65
2022-07-29T02:39:35.473Z,19.67
2022-07-29T02:42:08.239Z,19.68
2022-07-29T02:44:37.063Z,19.65
2022-07-29T02:47:23.170Z,19.58
2022-07-29T02:50:09.481Z,19.60
2022-07-29T02:53:10.087Z,19.62
2022-07-29T02:55:47.477Z,19.67
2022-07-29T02:58:29.431Z,19.71
2022-07-29T03:01:04.530Z,19.75
2022-07-29T03:03:38.453Z,19.76
2022-07-29T03:06:08.544Z,19.77
2022-07-29T03:08:57.703Z,19.76
2022-07-29T03:11:41.442Z,19.77
2022-07-29T03:14:15.683Z,19.77
2022-07-29T03:16:44.092Z,19.79
2022-07-29T03:19:12.344Z,19.81
2022-07-29T03:21:40.682Z,19.85
2022-07-29T03:24:10.867Z,19.90
2022-07-29T03:26:40.985Z,19.93
2022-07-29T03:29:09.243Z,19.97
2022-07-29T03:31:41.867Z,19.95
2022-07-29T03:34:11.561Z,19.90
2022-07-29T03:36:39.481Z,19.86
2022-07-29T03:39:11.085Z,19.85
2022-07-29T03:41:40.170Z,19.84
2022-07-29T03:44:09.684Z,19.83
2022-07-29T03:46:40.075Z,19.90
2022-07-29T03:49:09.633Z,19.89
2022-07-29T03:51:37.902Z,19.85
2022-07-29T03:54:10.113Z,19.86
2022-07-29T03:56:49.038Z,19.91
2022-07-29T03:59:20.522Z,19.95
2022-07-29T04:01:50.113Z,19.97
2022-07-29T04:04:18.859Z,20.09
2022-07-29T04:06:48.283Z,20.19
2022-07-29T04:09:16.367Z,20.27
2022-07-29T04:12:02.072Z,20.34
2022-07-29T04:14:33.784Z,20.45
2022-07-29T04:17:03.235Z,20.62
2022-07-29T04:19:31.805Z,20.76
2022-07-29T04:22:01.030Z,20.87
2022-07-29T04:24:29.534Z,20.98
2022-07-29T04:26:57.410Z,21.13
2022-07-29T04:29:25.284Z,21.30
2022-07-29T04:31:53.719Z,22.23
2022-07-29T04:34:21.656Z,23.16
2022-07-29T04:36:49.560Z,23.41
2022-07-29T04:39:22.758Z,23.20
2022-07-29T04:41:52.394Z,23.32
2022-07-29T04:44:26.530Z,25.86
2022-07-29T04:46:58.219Z,29.05
2022-07-29T04:49:26.733Z,28.53
2022-07-29T04:51:55.101Z,27.84
2022-07-29T04:54:23.327Z,29.16
2022-07-29T04:56:51.773Z,30.41
2022-07-29T04:59:19.825Z,30.93
2022-07-29T05:01:47.818Z,31.45
2022-07-29T05:04:16.375Z,31.32
2022-07-29T05:06:44.609Z,32.76
2022-07-29T05:09:12.473Z,35.74
2022-07-29T05:11:40.799Z,31.46
2022-07-29T05:14:08.776Z,30.96
2022-07-29T09:02:40.288Z,37.11
2022-07-29T09:05:10.766Z,39.52
2022-07-29T09:07:40.847Z,38.17
2022-07-29T09:10:10.009Z,39.77
2022-07-29T09:12:39.003Z,39.32
2022-07-29T09:15:09.388Z,38.73
2022-07-29T09:17:47.882Z,38.56
2022-07-29T09:20:21.427Z,38.57
2022-07-29T09:22:51.936Z,35.58
2022-07-29T09:25:37.078Z,37.60
2022-07-29T09:28:18.832Z,36.66
2022-07-29T09:30:55.312Z,35.77
2022-07-29T09:33:34.452Z,37.79
2022-07-29T09:36:07.597Z,36.68
2022-07-29T09:38:38.622Z,37.76
2022-07-29T09:41:09.135Z,35.91
2022-07-29T09:43:38.805Z,35.35
2022-07-29T09:46:16.994Z,34.74
2022-07-29T09:48:45.452Z,33.88
2022-07-29T09:51:25.554Z,33.39
2022-07-29T09:53:57.341Z,33.27
2022-07-29T09:56:42.786Z,32.64
2022-07-29T09:59:14.348Z,32.44
2022-07-29T10:01:43.033Z,32.61
2022-07-29T10:04:12.966Z,32.79
2022-07-29T10:07:09.781Z,33.24
2022-07-29T10:09:40.663Z,32.44
2022-07-29T10:12:17.448Z,32.71
2022-07-29T10:14:46.677Z,32.63
2022-07-29T10:17:16.714Z,32.86
2022-07-29T10:19:45.715Z,33.02
2022-07-29T10:22:15.043Z,33.37
2022-07-29T10:24:43.003Z,33.68
2022-07-29T10:27:10.983Z,33.23
2022-07-29T10:29:39.339Z,32.83
2022-07-29T10:32:31.884Z,33.49
2022-07-29T10:35:09.929Z,33.16
2022-07-29T10:38:24.793Z,32.79
2022-07-29T10:41:21.281Z,32.97
2022-07-29T10:43:53.265Z,32.67
2022-07-29T10:46:23.740Z,32.07
2022-07-29T10:49:24.729Z,31.74
2022-07-29T10:51:58.360Z,31.66
2022-07-29T10:54:52.486Z,32.43
2022-07-29T10:57:54.210Z,32.32
2022-07-29T11:00:31.681Z,33.20
2022-07-29T11:03:01.301Z,33.46
2022-07-29T11:05:53.488Z,33.38
2022-07-29T11:08:29.081Z,33.53
2022-07-29T11:11:22.191Z,33.54
2022-07-29T11:13:53.275Z,33.14
2022-07-29T11:16:25.302Z,33.38
2022-07-29T11:19:21.612Z,33.17
2022-07-29T11:21:58.910Z,33.41
2022-07-29T11:24:32.482Z,34.06
2022-07-29T11:27:13.520Z,34.27
2022-07-29T11:29:54.430Z,34.32
2022-07-29T11:35:37.047Z,33.83
2022-07-29T11:38:28.893Z,33.89
2022-07-29T11:41:25.565Z,33.99
2022-07-29T11:43:56.998Z,34.02
2022-07-29T11:46:49.970Z,34.10
2022-07-29T11:49:31.933Z,33.94
2022-07-29T11:52:22.855Z,34.20
2022-07-29T11:55:00.547Z,34.15
2022-07-29T11:57:36.171Z,33.68
2022-07-29T12:00:12.614Z,33.97
2022-07-29T12:02:48.136Z,34.02
2022-07-29T12:05:35.975Z,34.02
2022-07-29T12:07:01.471Z,33.68
2022-07-29T12:08:20.291Z,33.39
2022-07-29T12:10:52.943Z,33.68
2022-07-29T12:13:22.187Z,33.63
2022-07-29T12:16:00.022Z,33.60
2022-07-29T12:18:29.425Z,33.66
2022-07-29T12:21:06.821Z,33.53
2022-07-29T12:23:37.565Z,33.22
2022-07-29T12:26:11.008Z,33.30
2022-07-29T12:28:53.504Z,33.15
2022-07-29T12:31:43.847Z,33.06
2022-07-29T12:34:16.877Z,33.25
2022-07-29T12:36:45.661Z,32.78
2022-07-29T12:39:14.912Z,32.68
2022-07-29T12:41:45.372Z,33.03
2022-07-29T12:44:14.449Z,33.25
2022-07-29T12:46:42.338Z,33.11
2022-07-29T12:49:10.499Z,33.36
2022-07-29T12:51:41.619Z,33.30
2022-07-29T12:54:16.333Z,33.07
2022-07-29T12:56:46.108Z,32.74
2022-07-29T12:59:15.705Z,32.72
2022-07-29T13:01:45.684Z,32.59
2022-07-29T13:04:26.567Z,32.28
2022-07-29T13:07:07.498Z,32.08
2022-07-29T13:09:39.379Z,32.19
2022-07-29T13:12:11.198Z,32.49
2022-07-29T13:14:46.024Z,32.68
2022-07-29T13:17:24.265Z,33.00
2022-07-29T13:20:06.116Z,32.90
2022-07-29T13:22:37.451Z,32.93
2022-07-29T13:25:08.974Z,33.08
2022-07-29T13:27:39.657Z,33.27
2022-07-29T13:30:10.453Z,33.49
2022-07-29T13:32:38.787Z,33.60
2022-07-29T13:35:09.098Z,33.08
2022-07-29T13:37:39.619Z,32.91
2022-07-29T13:40:11.938Z,33.17
2022-07-29T13:42:40.351Z,33.16
2022-07-29T13:45:09.532Z,32.82
2022-07-29T13:47:37.938Z,33.09
2022-07-29T13:50:08.240Z,33.15
2022-07-29T13:52:36.475Z,33.00
2022-07-29T13:55:05.327Z,33.15
2022-07-29T13:57:33.653Z,33.25
2022-07-29T14:00:01.566Z,33.04
2022-07-29T14:02:36.315Z,32.91
2022-07-29T14:05:08.398Z,33.24
2022-07-29T14:07:38.055Z,32.99
2022-07-29T14:10:07.096Z,33.08
2022-07-29T14:12:35.196Z,33.19
2022-07-29T14:15:03.601Z,33.15
2022-07-29T14:17:31.955Z,33.13
2022-07-29T14:20:00.552Z,33.24
2022-07-29T14:22:28.539Z,33.18
2022-07-29T14:24:56.754Z,32.94
2022-07-29T14:27:36.904Z,32.99
2022-07-29T14:30:07.581Z,32.78
2022-07-29T14:32:35.478Z,32.85
2022-07-29T14:35:03.735Z,32.89
2022-07-29T14:37:39.786Z,32.92
2022-07-29T14:40:10.421Z,32.81
2022-07-29T14:42:39.136Z,32.76
2022-07-29T14:45:09.087Z,32.75
2022-07-29T14:47:38.318Z,32.70
2022-07-29T14:50:07.423Z,32.85
2022-07-29T14:52:36.467Z,33.09
2022-07-29T14:55:05.335Z,32.81
2022-07-29T14:57:44.649Z,32.79
2022-07-29T15:00:12.907Z,32.78
2022-07-29T15:03:00.925Z,32.76
2022-07-29T15:05:29.374Z,32.87
2022-07-29T15:07:57.391Z,32.78
2022-07-29T15:10:27.227Z,32.66
2022-07-29T15:12:56.363Z,32.56
2022-07-29T15:15:24.539Z,32.60
2022-07-29T15:17:52.496Z,32.62
2022-07-29T15:20:20.764Z,32.56
2022-07-29T15:22:48.744Z,32.49
2022-07-29T15:25:16.634Z,32.50
2022-07-29T15:27:48.965Z,32.47
2022-07-29T15:30:32.478Z,32.37
2022-07-29T15:33:05.350Z,32.26
2022-07-29T15:35:40.579Z,32.10
2022-07-29T15:38:09.306Z,32.07
2022-07-29T15:40:39.594Z,32.03
2022-07-29T15:43:07.890Z,32.00
2022-07-29T15:45:41.313Z,32.04
2022-07-29T15:48:10.380Z,32.05
2022-07-29T15:50:43.202Z,32.02
2022-07-29T15:53:15.389Z,31.96
2022-07-29T15:55:44.508Z,31.90
2022-07-29T15:58:12.676Z,31.83
2022-07-29T16:00:40.666Z,31.94
2022-07-29T16:03:08.963Z,31.85
2022-07-29T16:05:37.302Z,31.84
2022-07-29T16:08:05.813Z,31.81
2022-07-29T16:10:34.360Z,31.85
2022-07-29T16:13:02.378Z,31.74
2022-07-29T16:15:30.346Z,31.67
2022-07-29T16:17:58.639Z,31.80
2022-07-29T16:20:26.716Z,31.65
2022-07-29T16:22:55.290Z,31.70
2022-07-29T16:25:38.406Z,31.59
2022-07-29T16:28:11.542Z,31.46
2022-07-29T16:30:39.760Z,31.55
2022-07-29T16:33:08.510Z,31.36
2022-07-29T16:35:40.152Z,31.29
2022-07-29T16:38:08.693Z,31.28
2022-07-29T16:40:37.014Z,31.36
2022-07-29T16:43:04.928Z,31.38
2022-07-29T16:45:45.113Z,31.36
2022-07-29T16:48:15.326Z,31.33
2022-07-29T16:50:46.581Z,31.17
2022-07-29T16:53:14.463Z,31.04
2022-07-29T16:55:42.764Z,31.03
2022-07-29T16:58:11.458Z,31.10
2022-07-29T17:00:42.138Z,31.02
2022-07-29T17:03:10.382Z,30.89
2022-07-29T17:05:52.315Z,30.88
2022-07-29T17:08:23.008Z,30.74
2022-07-29T17:10:51.339Z,30.70
2022-07-29T17:13:19.629Z,30.65
2022-07-29T17:15:48.059Z,30.57
2022-07-29T17:18:16.031Z,30.50
2022-07-29T17:20:44.078Z,30.43
2022-07-29T17:23:12.360Z,30.38
2022-07-29T17:25:43.707Z,30.32
2022-07-29T17:28:11.624Z,30.25
2022-07-29T17:30:39.871Z,30.21
2022-07-29T17:33:09.012Z,30.14
2022-07-29T17:35:55.354Z,30.26
2022-07-29T17:38:23.539Z,30.19
2022-07-29T17:40:51.606Z,30.07
2022-07-29T17:43:19.532Z,30.08
2022-07-29T17:45:50.083Z,30.01
2022-07-29T17:48:19.617Z,29.96
2022-07-29T17:50:49.051Z,29.76
2022-07-29T17:53:17.411Z,29.73
2022-07-29T17:55:51.228Z,29.66
2022-07-29T17:58:19.628Z,29.48
2022-07-29T18:00:48.321Z,29.38
2022-07-29T18:03:16.735Z,29.35
2022-07-29T18:05:45.150Z,29.22
2022-07-29T18:08:13.228Z,29.06
2022-07-29T18:10:41.750Z,28.95
2022-07-29T18:13:11.664Z,28.92
2022-07-29T18:15:40.595Z,28.88
2022-07-29T18:18:09.227Z,28.80
2022-07-29T18:20:37.781Z,28.74
2022-07-29T18:23:06.109Z,28.60
2022-07-29T18:25:34.556Z,28.51
2022-07-29T18:28:02.468Z,28.38
2022-07-29T18:30:31.226Z,28.34
2022-07-29T18:33:20.228Z,28.22
2022-07-29T18:35:49.596Z,28.11
2022-07-29T18:38:18.436Z,28.03
2022-07-29T18:40:46.508Z,27.93
2022-07-29T18:43:14.685Z,27.89
2022-07-29T18:45:43.031Z,27.85
2022-07-29T18:48:12.741Z,27.74
2022-07-29T18:50:41.914Z,27.70
2022-07-29T18:53:10.356Z,27.67
2022-07-29T18:55:38.370Z,27.77
2022-07-29T18:58:06.553Z,27.69
2022-07-29T19:00:35.464Z,27.64
2022-07-29T19:03:03.696Z,27.65
2022-07-29T19:05:32.397Z,27.58
2022-07-29T19:08:00.835Z,27.51
2022-07-29T19:10:29.037Z,27.51
2022-07-29T19:12:58.131Z,27.51
2022-07-29T19:15:26.815Z,27.44
2022-07-29T19:17:59.015Z,27.39
2022-07-29T19:20:29.569Z,27.37
2022-07-29T19:22:57.614Z,27.24
2022-07-29T19:25:25.916Z,27.26
2022-07-29T19:27:54.323Z,27.19
2022-07-29T19:30:22.454Z,27.09
2022-07-29T19:32:50.678Z,26.99
2022-07-29T19:35:28.464Z,26.87
2022-07-29T19:37:58.432Z,26.86
2022-07-29T19:40:27.921Z,26.83
2022-07-29T19:42:56.605Z,26.78
2022-07-29T19:45:26.149Z,26.75
2022-07-29T19:48:00.752Z,26.68
2022-07-29T19:50:30.273Z,26.63
2022-07-29T19:52:59.512Z,26.54
2022-07-29T19:55:28.227Z,26.48
2022-07-29T19:57:56.630Z,26.38
2022-07-29T20:00:26.047Z,26.39
2022-07-29T20:02:54.464Z,26.33
2022-07-29T20:05:27.837Z,26.28
2022-07-29T20:07:57.162Z,26.24
2022-07-29T20:10:25.352Z,26.20
2022-07-29T20:12:55.025Z,26.19
2022-07-29T20:15:23.876Z,26.15
2022-07-29T20:17:56.935Z,26.13
2022-07-29T20:20:25.879Z,26.07
2022-07-29T20:22:54.340Z,26.03
2022-07-29T20:25:23.380Z,25.99
2022-07-29T20:27:52.647Z,25.95
2022-07-29T20:30:22.312Z,25.96
2022-07-29T20:32:50.724Z,25.92
2022-07-29T20:35:20.230Z,25.92
2022-07-29T20:37:52.034Z,25.89
2022-07-29T20:40:25.934Z,25.88
2022-07-29T20:42:54.513Z,25.84
2022-07-29T20:45:23.765Z,25.86
2022-07-29T20:47:52.871Z,25.89
2022-07-29T20:50:24.261Z,25.92
2022-07-29T20:52:53.437Z,25.96
2022-07-29T20:55:21.847Z,26.02
2022-07-29T20:57:55.433Z,26.00
2022-07-29T21:00:23.701Z,25.99
2022-07-29T21:02:51.847Z,25.97
2022-07-29T21:05:19.889Z,25.87
2022-07-29T21:07:48.088Z,25.87
2022-07-29T21:10:18.340Z,25.84
2022-07-29T21:12:46.867Z,25.79
2022-07-29T21:15:15.349Z,25.74
2022-07-29T21:17:49.143Z,25.69
2022-07-29T21:20:19.078Z,25.66
2022-07-29T21:22:47.064Z,25.65
2022-07-29T21:25:15.169Z,25.74
2022-07-29T21:28:02.169Z,25.82
2022-07-29T21:30:30.043Z,25.75
2022-07-29T21:32:58.846Z,25.69
2022-07-29T21:36:01.690Z,25.62
2022-07-29T21:38:16.536Z,25.51
2022-07-29T21:40:48.739Z,25.35
2022-07-29T21:43:17.786Z,25.33
2022-07-29T21:45:52.282Z,25.24
2022-07-29T21:48:21.651Z,25.10
2022-07-29T21:50:51.059Z,25.00
2022-07-29T21:53:20.826Z,24.96
2022-07-29T21:55:51.581Z,24.87
2022-07-29T21:58:22.221Z,24.75
2022-07-29T22:00:50.333Z,24.74
2022-07-29T22:03:18.555Z,24.68
2022-07-29T22:05:46.613Z,24.70
2022-07-29T22:08:14.757Z,24.60
2022-07-29T22:10:43.198Z,24.58
2022-07-29T22:13:11.447Z,24.53
2022-07-29T22:15:41.188Z,24.51
2022-07-29T22:18:12.476Z,24.48
2022-07-29T22:20:47.391Z,24.45
2022-07-29T22:23:15.746Z,24.40
2022-07-29T22:25:43.627Z,24.36
2022-07-29T22:28:11.566Z,24.35
2022-07-29T22:30:39.861Z,24.37
2022-07-29T22:33:07.770Z,24.37
2022-07-29T22:35:35.817Z,24.39
2022-07-29T22:38:04.053Z,24.43
2022-07-29T22:40:32.782Z,24.56
2022-07-29T22:43:02.217Z,24.65
2022-07-29T22:45:30.426Z,24.62
2022-07-29T22:47:59.443Z,24.64
2022-07-29T22:50:27.539Z,24.65
2022-07-29T22:52:55.775Z,24.64
2022-07-29T22:55:23.659Z,24.62
2022-07-29T22:57:51.683Z,24.57
2022-07-29T23:00:19.943Z,24.52
2022-07-29T23:02:47.930Z,24.49
2022-07-29T23:05:16.097Z,24.45
2022-07-29T23:07:44.582Z,24.39
2022-07-29T23:10:12.477Z,24.34
2022-07-29T23:12:40.360Z,24.30
2022-07-29T23:15:08.720Z,24.24
2022-07-29T23:17:37.096Z,24.14
2022-07-29T23:20:07.723Z,24.10
2022-07-29T23:22:36.512Z,24.13
2022-07-29T23:25:06.367Z,24.10
2022-07-29T23:27:34.409Z,24.08
2022-07-29T23:30:03.802Z,24.05
2022-07-29T23:32:31.846Z,23.94
2022-07-29T23:34:59.831Z,23.91
2022-07-29T23:37:28.110Z,23.92
2022-07-29T23:39:56.454Z,23.92
2022-07-29T23:42:24.322Z,23.90
2022-07-29T23:44:52.712Z,23.87
2022-07-29T23:47:20.643Z,23.83
2022-07-29T23:49:50.101Z,23.75
2022-07-29T23:52:18.600Z,23.73
2022-07-29T23:54:46.679Z,23.69
2022-07-29T23:57:14.665Z,23.64
2022-07-29T23:59:42.930Z,23.59
